Terminal Aerodrome Forecast
Issued by NWS Rapid City, SD

Home | Current Version | Previous Version | Text Only | Print | Product List | Glossary On
Versions: 1 2 3 4 5 6 7 8 9 10 11 12 13 14 15 16 17
000
FTUS43 KUNR 191441 AAA
TAFRAP
TAF AMD
KRAP 191441Z 1915/2012 22012KT P6SM OVC090
     FM192100 32017G27KT P6SM -SHRA OVC070
     FM200200 31010KT P6SM SCT050=

USA.gov is the U.S. government's official web portal to all federal, state and local government web resources and services.